sensor_id;sensor_type;location;lat;lon;timestamp;pressure;altitude;pressure_sealevel;temperature;humidity
4576;BME280;2300;51.874;8.430;2022-10-16T00:00:41;100281.44;;;14.20;94.79
4576;BME280;2300;51.874;8.430;2022-10-16T00:03:08;100292.00;;;14.28;95.15
4576;BME280;2300;51.874;8.430;2022-10-16T00:05:38;100293.31;;;14.20;94.80
4576;BME280;2300;51.874;8.430;2022-10-16T00:08:05;100283.63;;;14.13;94.84
4576;BME280;2300;51.874;8.430;2022-10-16T00:10:32;100285.28;;;14.14;94.96
4576;BME280;2300;51.874;8.430;2022-10-16T00:12:58;100283.91;;;14.16;95.10
4576;BME280;2300;51.874;8.430;2022-10-16T00:15:26;100282.72;;;14.02;94.98
4576;BME280;2300;51.874;8.430;2022-10-16T00:17:52;100288.22;;;14.02;95.33
4576;BME280;2300;51.874;8.430;2022-10-16T00:20:19;100292.91;;;14.02;95.15
4576;BME280;2300;51.874;8.430;2022-10-16T00:22:45;100288.72;;;13.99;95.32
4576;BME280;2300;51.874;8.430;2022-10-16T00:25:12;100303.16;;;14.06;95.39
4576;BME280;2300;51.874;8.430;2022-10-16T00:27:38;100301.25;;;14.07;95.35
4576;BME280;2300;51.874;8.430;2022-10-16T00:30:06;100289.53;;;14.00;95.45
4576;BME280;2300;51.874;8.430;2022-10-16T00:32:35;100301.25;;;14.07;95.44
4576;BME280;2300;51.874;8.430;2022-10-16T00:35:02;100300.41;;;14.06;95.30
4576;BME280;2300;51.874;8.430;2022-10-16T00:37:29;100294.63;;;14.08;95.38
4576;BME280;2300;51.874;8.430;2022-10-16T00:39:55;100240.00;;;13.78;94.78
4576;BME280;2300;51.874;8.430;2022-10-16T00:42:22;100287.13;;;14.03;94.96
4576;BME280;2300;51.874;8.430;2022-10-16T00:44:51;100294.47;;;13.93;95.20
4576;BME280;2300;51.874;8.430;2022-10-16T00:47:21;100291.31;;;13.79;95.24
4576;BME280;2300;51.874;8.430;2022-10-16T00:49:52;100287.22;;;13.81;95.56
4576;BME280;2300;51.874;8.430;2022-10-16T00:52:19;100280.56;;;13.77;95.41
4576;BME280;2300;51.874;8.430;2022-10-16T00:54:46;100283.28;;;13.72;95.30
4576;BME280;2300;51.874;8.430;2022-10-16T00:57:15;100284.88;;;13.68;95.72
4576;BME280;2300;51.874;8.430;2022-10-16T00:59:42;100292.69;;;13.76;95.71
4576;BME280;2300;51.874;8.430;2022-10-16T01:02:11;100297.31;;;13.71;95.61
4576;BME280;2300;51.874;8.430;2022-10-16T01:04:42;100272.63;;;13.54;96.44
4576;BME280;2300;51.874;8.430;2022-10-16T01:07:16;100284.53;;;13.60;97.30
4576;BME280;2300;51.874;8.430;2022-10-16T01:09:57;100310.06;;;13.77;96.81
4576;BME280;2300;51.874;8.430;2022-10-16T01:12:33;100312.63;;;13.84;97.08
4576;BME280;2300;51.874;8.430;2022-10-16T01:15:10;100302.72;;;13.88;96.96
4576;BME280;2300;51.874;8.430;2022-10-16T01:17:41;100314.84;;;13.87;96.54
4576;BME280;2300;51.874;8.430;2022-10-16T01:20:14;100305.53;;;13.93;96.29
4576;BME280;2300;51.874;8.430;2022-10-16T01:22:59;100308.75;;;13.85;96.71
4576;BME280;2300;51.874;8.430;2022-10-16T01:25:36;100315.44;;;13.89;96.79
4576;BME280;2300;51.874;8.430;2022-10-16T01:28:10;100313.44;;;13.84;96.88
4576;BME280;2300;51.874;8.430;2022-10-16T01:30:39;100308.91;;;13.68;97.84
4576;BME280;2300;51.874;8.430;2022-10-16T01:33:11;100320.22;;;13.71;98.03
4576;BME280;2300;51.874;8.430;2022-10-16T01:35:43;100319.44;;;13.76;97.48
4576;BME280;2300;51.874;8.430;2022-10-16T01:38:16;100330.22;;;13.77;97.74
4576;BME280;2300;51.874;8.430;2022-10-16T01:40:46;100326.34;;;13.78;97.94
4576;BME280;2300;51.874;8.430;2022-10-16T01:43:17;100332.69;;;13.79;97.78
4576;BME280;2300;51.874;8.430;2022-10-16T01:45:45;100301.09;;;13.60;97.63
4576;BME280;2300;51.874;8.430;2022-10-16T01:48:14;100308.91;;;13.68;97.64
4576;BME280;2300;51.874;8.430;2022-10-16T01:50:44;100328.84;;;13.80;97.63
4576;BME280;2300;51.874;8.430;2022-10-16T01:53:15;100315.22;;;13.68;97.25
4576;BME280;2300;51.874;8.430;2022-10-16T01:55:46;100348.41;;;13.78;97.21
4576;BME280;2300;51.874;8.430;2022-10-16T01:58:16;100335.13;;;13.70;96.79
4576;BME280;2300;51.874;8.430;2022-10-16T02:00:44;100305.31;;;13.41;96.71
4576;BME280;2300;51.874;8.430;2022-10-16T02:03:15;100327.22;;;13.52;96.93
4576;BME280;2300;51.874;8.430;2022-10-16T02:05:45;100320.53;;;13.48;96.72
4576;BME280;2300;51.874;8.430;2022-10-16T02:08:12;100328.75;;;13.43;96.82
4576;BME280;2300;51.874;8.430;2022-10-16T02:10:40;100314.63;;;13.34;96.71
4576;BME280;2300;51.874;8.430;2022-10-16T02:13:10;100318.53;;;13.38;97.23
4576;BME280;2300;51.874;8.430;2022-10-16T02:15:39;100319.25;;;13.29;97.06
4576;BME280;2300;51.874;8.430;2022-10-16T02:18:06;100319.19;;;13.24;96.93
4576;BME280;2300;51.874;8.430;2022-10-16T02:20:38;100323.88;;;13.23;97.78
4576;BME280;2300;51.874;8.430;2022-10-16T02:23:12;100313.88;;;13.17;97.41
4576;BME280;2300;51.874;8.430;2022-10-16T02:25:44;100320.75;;;13.15;97.67
4576;BME280;2300;51.874;8.430;2022-10-16T02:28:16;100315.25;;;13.15;97.82
4576;BME280;2300;51.874;8.430;2022-10-16T02:30:48;100311.44;;;13.21;98.66
4576;BME280;2300;51.874;8.430;2022-10-16T02:33:17;100303.72;;;13.23;98.00
4576;BME280;2300;51.874;8.430;2022-10-16T02:35:47;100294.78;;;13.11;98.55
4576;BME280;2300;51.874;8.430;2022-10-16T02:38:16;100334.84;;;13.18;99.22
4576;BME280;2300;51.874;8.430;2022-10-16T02:40:44;100324.75;;;13.29;99.60
4576;BME280;2300;51.874;8.430;2022-10-16T02:43:11;100331.53;;;13.43;99.15
4576;BME280;2300;51.874;8.430;2022-10-16T02:45:38;100331.53;;;13.43;99.48
4576;BME280;2300;51.874;8.430;2022-10-16T02:48:07;100327.72;;;13.49;99.44
4576;BME280;2300;51.874;8.430;2022-10-16T02:50:33;100335.22;;;13.54;99.69
4576;BME280;2300;51.874;8.430;2022-10-16T02:53:00;100290.53;;;13.25;99.64
4576;BME280;2300;51.874;8.430;2022-10-16T02:55:27;100323.84;;;13.45;99.50
4576;BME280;2300;51.874;8.430;2022-10-16T02:57:54;100332.09;;;13.45;98.88
4576;BME280;2300;51.874;8.430;2022-10-16T03:00:21;100323.69;;;13.30;98.62
4576;BME280;2300;51.874;8.430;2022-10-16T03:02:47;100344.19;;;13.39;98.98
4576;BME280;2300;51.874;8.430;2022-10-16T03:05:15;100347.47;;;13.36;98.44
4576;BME280;2300;51.874;8.430;2022-10-16T03:07:42;100323.56;;;13.20;99.32
4576;BME280;2300;51.874;8.430;2022-10-16T03:10:09;100312.09;;;13.06;98.88
4576;BME280;2300;51.874;8.430;2022-10-16T03:12:35;100338.53;;;13.29;99.01
4576;BME280;2300;51.874;8.430;2022-10-16T03:15:03;100339.56;;;13.23;99.06
4576;BME280;2300;51.874;8.430;2022-10-16T03:17:29;100329.06;;;13.20;98.70
4576;BME280;2300;51.874;8.430;2022-10-16T03:19:57;100325.72;;;13.18;98.57
4576;BME280;2300;51.874;8.430;2022-10-16T03:22:25;100341.06;;;13.30;98.50
4576;BME280;2300;51.874;8.430;2022-10-16T03:24:52;100315.94;;;13.05;98.41
4576;BME280;2300;51.874;8.430;2022-10-16T03:27:18;100333.16;;;13.17;98.75
4576;BME280;2300;51.874;8.430;2022-10-16T03:29:45;100312.47;;;13.15;98.23
4576;BME280;2300;51.874;8.430;2022-10-16T03:32:11;100297.94;;;12.98;98.07
4576;BME280;2300;51.874;8.430;2022-10-16T03:34:38;100291.13;;;12.83;98.52
4576;BME280;2300;51.874;8.430;2022-10-16T03:37:04;100335.63;;;13.14;98.69
4576;BME280;2300;51.874;8.430;2022-10-16T03:39:32;100339.66;;;13.06;98.73
4576;BME280;2300;51.874;8.430;2022-10-16T03:41:59;100336.28;;;12.99;99.09
4576;BME280;2300;51.874;8.430;2022-10-16T03:44:25;100327.09;;;12.93;99.00
4576;BME280;2300;51.874;8.430;2022-10-16T03:46:52;100352.94;;;13.09;98.91
4576;BME280;2300;51.874;8.430;2022-10-16T03:49:18;100358.06;;;13.01;98.98
4576;BME280;2300;51.874;8.430;2022-10-16T03:51:45;100353.00;;;13.14;98.90
4576;BME280;2300;51.874;8.430;2022-10-16T03:54:11;100357.66;;;13.14;99.17
4576;BME280;2300;51.874;8.430;2022-10-16T03:56:39;100352.47;;;13.17;99.23
4576;BME280;2300;51.874;8.430;2022-10-16T03:59:06;100333.81;;;13.03;99.27
4576;BME280;2300;51.874;8.430;2022-10-16T04:01:33;100340.59;;;13.17;99.60
4576;BME280;2300;51.874;8.430;2022-10-16T04:03:59;100334.25;;;13.16;99.91
4576;BME280;2300;51.874;8.430;2022-10-16T04:06:27;100321.59;;;13.15;99.69
4576;BME280;2300;51.874;8.430;2022-10-16T04:08:53;100338.84;;;13.32;99.57
4576;BME280;2300;51.874;8.430;2022-10-16T04:11:20;100337.22;;;13.31;98.93
4576;BME280;2300;51.874;8.430;2022-10-16T04:13:48;100288.94;;;13.07;98.87
4576;BME280;2300;51.874;8.430;2022-10-16T04:16:15;100341.16;;;13.41;99.00
4576;BME280;2300;51.874;8.430;2022-10-16T04:18:42;100340.63;;;13.44;99.35
4576;BME280;2300;51.874;8.430;2022-10-16T04:21:08;100348.13;;;13.48;99.01
4576;BME280;2300;51.874;8.430;2022-10-16T04:23:35;100351.72;;;13.49;98.85
4576;BME280;2300;51.874;8.430;2022-10-16T04:26:02;100344.81;;;13.46;98.58
4576;BME280;2300;51.874;8.430;2022-10-16T04:28:29;100340.03;;;13.36;98.21
4576;BME280;2300;51.874;8.430;2022-10-16T04:30:56;100362.56;;;13.55;98.28
4576;BME280;2300;51.874;8.430;2022-10-16T04:33:23;100373.94;;;13.64;98.18
4576;BME280;2300;51.874;8.430;2022-10-16T04:35:56;100370.84;;;13.55;98.32
4576;BME280;2300;51.874;8.430;2022-10-16T04:38:23;100365.72;;;13.42;98.38
4576;BME280;2300;51.874;8.430;2022-10-16T04:40:49;100365.63;;;13.59;98.30
4576;BME280;2300;51.874;8.430;2022-10-16T04:43:16;100377.09;;;13.72;97.73
4576;BME280;2300;51.874;8.430;2022-10-16T04:45:43;100377.63;;;13.74;97.58
4576;BME280;2300;51.874;8.430;2022-10-16T04:48:11;100384.78;;;13.70;97.29
4576;BME280;2300;51.874;8.430;2022-10-16T04:50:37;100380.94;;;13.71;96.88
4576;BME280;2300;51.874;8.430;2022-10-16T04:53:04;100336.78;;;13.45;97.33
4576;BME280;2300;51.874;8.430;2022-10-16T04:55:31;100389.41;;;13.65;97.42
4576;BME280;2300;51.874;8.430;2022-10-16T04:57:58;100395.72;;;13.60;97.31
4576;BME280;2300;51.874;8.430;2022-10-16T05:00:25;100385.31;;;13.67;97.21
4576;BME280;2300;51.874;8.430;2022-10-16T05:02:51;100384.94;;;13.59;97.17
4576;BME280;2300;51.874;8.430;2022-10-16T05:05:19;100401.16;;;13.55;97.25
4576;BME280;2300;51.874;8.430;2022-10-16T05:07:46;100404.22;;;13.59;97.17
4576;BME280;2300;51.874;8.430;2022-10-16T05:10:13;100409.13;;;13.52;97.53
4576;BME280;2300;51.874;8.430;2022-10-16T05:12:39;100376.78;;;13.42;96.99
4576;BME280;2300;51.874;8.430;2022-10-16T05:15:07;100404.47;;;13.52;96.87
4576;BME280;2300;51.874;8.430;2022-10-16T05:17:34;100414.97;;;13.55;97.09
4576;BME280;2300;51.874;8.430;2022-10-16T05:20:00;100406.09;;;13.53;97.01
4576;BME280;2300;51.874;8.430;2022-10-16T05:22:28;100409.13;;;13.52;96.62
4576;BME280;2300;51.874;8.430;2022-10-16T05:24:55;100409.09;;;13.47;97.03
4576;BME280;2300;51.874;8.430;2022-10-16T05:27:21;100385.34;;;13.24;96.71
4576;BME280;2300;51.874;8.430;2022-10-16T05:29:48;100414.66;;;13.52;96.53
4576;BME280;2300;51.874;8.430;2022-10-16T05:32:16;100401.38;;;13.49;96.29
4576;BME280;2300;51.874;8.430;2022-10-16T05:34:43;100403.44;;;13.36;96.18
4576;BME280;2300;51.874;8.430;2022-10-16T05:37:10;100413.06;;;13.34;96.32
4576;BME280;2300;51.874;8.430;2022-10-16T05:39:39;100412.47;;;13.32;96.15
4576;BME280;2300;51.874;8.430;2022-10-16T05:42:05;100408.50;;;13.23;96.12
4576;BME280;2300;51.874;8.430;2022-10-16T05:44:32;100408.31;;;13.08;96.48
4576;BME280;2300;51.874;8.430;2022-10-16T05:46:59;100415.31;;;13.15;96.84
4576;BME280;2300;51.874;8.430;2022-10-16T05:49:25;100428.25;;;13.15;97.06
4576;BME280;2300;51.874;8.430;2022-10-16T05:51:52;100435.25;;;13.01;98.11
4576;BME280;2300;51.874;8.430;2022-10-16T05:54:18;100434.19;;;13.07;98.06
4576;BME280;2300;51.874;8.430;2022-10-16T05:56:46;100450.25;;;13.10;97.91
4576;BME280;2300;51.874;8.430;2022-10-16T05:59:13;100442.22;;;13.08;97.42
4576;BME280;2300;51.874;8.430;2022-10-16T06:01:39;100433.63;;;13.05;97.53
4576;BME280;2300;51.874;8.430;2022-10-16T06:04:06;100365.16;;;12.58;97.18
4576;BME280;2300;51.874;8.430;2022-10-16T06:06:32;100423.88;;;12.80;97.23
4576;BME280;2300;51.874;8.430;2022-10-16T06:09:01;100467.94;;;13.14;97.29
4576;BME280;2300;51.874;8.430;2022-10-16T06:11:30;100469.25;;;13.11;97.29
4576;BME280;2300;51.874;8.430;2022-10-16T06:14:00;100471.22;;;13.11;97.29
4576;BME280;2300;51.874;8.430;2022-10-16T06:16:28;100463.25;;;13.14;97.43
4576;BME280;2300;51.874;8.430;2022-10-16T06:18:55;100477.03;;;13.14;97.60
4576;BME280;2300;51.874;8.430;2022-10-16T06:21:25;100466.56;;;13.16;97.65
4576;BME280;2300;51.874;8.430;2022-10-16T06:23:52;100475.19;;;13.20;97.69
4576;BME280;2300;51.874;8.430;2022-10-16T06:26:21;100441.38;;;13.08;98.10
4576;BME280;2300;51.874;8.430;2022-10-16T06:28:49;100416.81;;;13.06;97.80
4576;BME280;2300;51.874;8.430;2022-10-16T06:31:17;100473.72;;;13.34;97.55
4576;BME280;2300;51.874;8.430;2022-10-16T06:33:44;100483.06;;;13.33;97.38
4576;BME280;2300;51.874;8.430;2022-10-16T06:36:13;100482.84;;;13.34;97.61
4576;BME280;2300;51.874;8.430;2022-10-16T06:38:41;100490.66;;;13.43;97.33
4576;BME280;2300;51.874;8.430;2022-10-16T06:41:11;100472.13;;;13.38;97.69
4576;BME280;2300;51.874;8.430;2022-10-16T06:43:38;100495.72;;;13.51;97.18
4576;BME280;2300;51.874;8.430;2022-10-16T06:46:06;100528.66;;;13.57;97.00
4576;BME280;2300;51.874;8.430;2022-10-16T06:48:35;100485.53;;;13.51;97.12
4576;BME280;2300;51.874;8.430;2022-10-16T06:51:04;100497.84;;;13.65;96.66
4576;BME280;2300;51.874;8.430;2022-10-16T06:53:32;100517.53;;;13.74;96.05
4576;BME280;2300;51.874;8.430;2022-10-16T06:56:06;100529.94;;;13.71;96.54
4576;BME280;2300;51.874;8.430;2022-10-16T06:58:33;100478.22;;;13.40;96.00
4576;BME280;2300;51.874;8.430;2022-10-16T07:01:01;100519.78;;;13.77;95.90
4576;BME280;2300;51.874;8.430;2022-10-16T07:03:27;100534.56;;;13.88;95.88
4576;BME280;2300;51.874;8.430;2022-10-16T07:05:55;100485.72;;;13.66;95.41
4576;BME280;2300;51.874;8.430;2022-10-16T07:08:22;100547.84;;;14.12;94.86
4576;BME280;2300;51.874;8.430;2022-10-16T07:10:48;100544.81;;;14.14;94.69
4576;BME280;2300;51.874;8.430;2022-10-16T07:13:15;100547.31;;;14.15;94.19
4576;BME280;2300;51.874;8.430;2022-10-16T07:15:41;100549.03;;;14.00;93.97
4576;BME280;2300;51.874;8.430;2022-10-16T07:18:08;100550.59;;;14.12;94.42
4576;BME280;2300;51.874;8.430;2022-10-16T07:20:35;100561.44;;;14.19;94.41
4576;BME280;2300;51.874;8.430;2022-10-16T07:23:03;100553.88;;;14.09;94.39
4576;BME280;2300;51.874;8.430;2022-10-16T07:25:31;100573.44;;;14.30;94.61
4576;BME280;2300;51.874;8.430;2022-10-16T07:27:58;100563.59;;;14.39;94.05
4576;BME280;2300;51.874;8.430;2022-10-16T07:30:24;100582.09;;;14.38;93.80
4576;BME280;2300;51.874;8.430;2022-10-16T07:32:51;100583.03;;;14.49;93.58
4576;BME280;2300;51.874;8.430;2022-10-16T07:35:17;100592.16;;;14.49;93.33
4576;BME280;2300;51.874;8.430;2022-10-16T07:37:44;100594.47;;;14.62;93.08
4576;BME280;2300;51.874;8.430;2022-10-16T07:40:13;100596.63;;;14.55;92.46
4576;BME280;2300;51.874;8.430;2022-10-16T07:42:39;100592.34;;;14.70;92.83
4576;BME280;2300;51.874;8.430;2022-10-16T07:45:06;100571.72;;;14.50;92.46
4576;BME280;2300;51.874;8.430;2022-10-16T07:47:33;100613.97;;;14.78;91.80
4576;BME280;2300;51.874;8.430;2022-10-16T07:49:59;100620.88;;;14.75;91.95
4576;BME280;2300;51.874;8.430;2022-10-16T07:52:26;100617.38;;;14.85;92.17
4576;BME280;2300;51.874;8.430;2022-10-16T07:54:52;100621.00;;;14.90;91.77
4576;BME280;2300;51.874;8.430;2022-10-16T07:57:20;100637.31;;;14.87;92.11
4576;BME280;2300;51.874;8.430;2022-10-16T07:59:46;100620.97;;;14.85;91.87
4576;BME280;2300;51.874;8.430;2022-10-16T08:02:13;100624.28;;;14.87;91.69
4576;BME280;2300;51.874;8.430;2022-10-16T08:04:39;100625.56;;;14.75;91.93
4576;BME280;2300;51.874;8.430;2022-10-16T08:07:07;100606.22;;;14.75;91.27
4576;BME280;2300;51.874;8.430;2022-10-16T08:09:34;100616.19;;;14.76;91.77
4576;BME280;2300;51.874;8.430;2022-10-16T08:12:00;100621.13;;;14.74;91.40
4576;BME280;2300;51.874;8.430;2022-10-16T08:14:28;100635.34;;;14.87;91.34
4576;BME280;2300;51.874;8.430;2022-10-16T08:16:55;100623.44;;;14.82;91.47
4576;BME280;2300;51.874;8.430;2022-10-16T08:19:21;100621.75;;;14.81;91.81
4576;BME280;2300;51.874;8.430;2022-10-16T08:21:48;100635.41;;;14.92;92.00
4576;BME280;2300;51.874;8.430;2022-10-16T08:24:14;100645.19;;;15.05;92.11
4576;BME280;2300;51.874;8.430;2022-10-16T08:26:41;100638.16;;;15.19;91.43
4576;BME280;2300;51.874;8.430;2022-10-16T08:29:07;100644.25;;;15.21;91.57
4576;BME280;2300;51.874;8.430;2022-10-16T08:31:35;100647.44;;;15.40;90.90
4576;BME280;2300;51.874;8.430;2022-10-16T08:34:02;100649.75;;;15.53;90.09
4576;BME280;2300;51.874;8.430;2022-10-16T08:36:28;100646.81;;;15.65;89.96
4576;BME280;2300;51.874;8.430;2022-10-16T08:38:55;100662.38;;;15.81;89.72
4576;BME280;2300;51.874;8.430;2022-10-16T08:41:30;100667.47;;;15.94;89.84
4576;BME280;2300;51.874;8.430;2022-10-16T08:44:27;100668.00;;;15.96;88.35
4576;BME280;2300;51.874;8.430;2022-10-16T08:47:02;100680.41;;;16.30;87.21
4576;BME280;2300;51.874;8.430;2022-10-16T08:49:34;100673.00;;;16.46;86.18
4576;BME280;2300;51.874;8.430;2022-10-16T08:52:01;100676.69;;;16.82;85.64
4576;BME280;2300;51.874;8.430;2022-10-16T08:54:30;100684.22;;;17.02;84.31
4576;BME280;2300;51.874;8.430;2022-10-16T08:57:07;100674.25;;;17.11;82.92
4576;BME280;2300;51.874;8.430;2022-10-16T08:59:35;100692.31;;;17.29;82.74
4576;BME280;2300;51.874;8.430;2022-10-16T09:02:20;100701.75;;;17.53;82.58
4576;BME280;2300;51.874;8.430;2022-10-16T09:05:16;100701.47;;;17.65;81.02
4576;BME280;2300;51.874;8.430;2022-10-16T09:07:49;100696.50;;;17.62;81.06
4576;BME280;2300;51.874;8.430;2022-10-16T09:10:29;100687.34;;;17.36;80.93
4576;BME280;2300;51.874;8.430;2022-10-16T09:13:12;100701.22;;;17.61;81.27
4576;BME280;2300;51.874;8.430;2022-10-16T09:15:48;100670.13;;;17.49;80.50
4576;BME280;2300;51.874;8.430;2022-10-16T09:18:22;100712.00;;;17.93;80.51
4576;BME280;2300;51.874;8.430;2022-10-16T09:20:53;100685.66;;;17.65;78.40
4576;BME280;2300;51.874;8.430;2022-10-16T09:23:26;100712.56;;;17.80;78.60
4576;BME280;2300;51.874;8.430;2022-10-16T09:26:09;100715.59;;;17.73;78.90
4576;BME280;2300;51.874;8.430;2022-10-16T09:28:37;100720.06;;;17.79;78.66
4576;BME280;2300;51.874;8.430;2022-10-16T09:31:03;100678.44;;;17.64;78.22
4576;BME280;2300;51.874;8.430;2022-10-16T09:33:34;100668.72;;;17.72;77.05
4576;BME280;2300;51.874;8.430;2022-10-16T09:36:03;100698.38;;;18.01;78.07
4576;BME280;2300;51.874;8.430;2022-10-16T09:38:32;100727.78;;;18.23;77.26
4576;BME280;2300;51.874;8.430;2022-10-16T09:41:00;100684.47;;;18.12;76.24
4576;BME280;2300;51.874;8.430;2022-10-16T09:43:33;100677.81;;;18.08;75.05
4576;BME280;2300;51.874;8.430;2022-10-16T09:46:02;100678.59;;;18.28;75.74
4576;BME280;2300;51.874;8.430;2022-10-16T09:48:36;100724.25;;;18.66;74.71
4576;BME280;2300;51.874;8.430;2022-10-16T09:51:05;100717.63;;;18.62;73.29
4576;BME280;2300;51.874;8.430;2022-10-16T09:53:40;100717.84;;;18.71;73.06
4576;BME280;2300;51.874;8.430;2022-10-16T09:56:09;100736.44;;;18.91;72.12
4576;BME280;2300;51.874;8.430;2022-10-16T09:58:42;100733.34;;;18.92;71.02
4576;BME280;2300;51.874;8.430;2022-10-16T10:01:13;100738.09;;;18.86;71.41
4576;BME280;2300;51.874;8.430;2022-10-16T10:03:42;100739.69;;;19.03;71.89
4576;BME280;2300;51.874;8.430;2022-10-16T10:06:22;100741.41;;;18.94;69.22
4576;BME280;2300;51.874;8.430;2022-10-16T10:09:15;100746.66;;;19.00;69.29
4576;BME280;2300;51.874;8.430;2022-10-16T10:12:01;100743.41;;;18.83;69.46
4576;BME280;2300;51.874;8.430;2022-10-16T10:14:31;100749.50;;;18.90;69.41
4576;BME280;2300;51.874;8.430;2022-10-16T10:17:10;100748.91;;;18.93;69.09
4576;BME280;2300;51.874;8.430;2022-10-16T10:19:40;100752.16;;;19.10;68.80
4576;BME280;2300;51.874;8.430;2022-10-16T10:22:16;100762.47;;;19.10;68.49
4576;BME280;2300;51.874;8.430;2022-10-16T10:24:44;100753.56;;;19.08;67.83
4576;BME280;2300;51.874;8.430;2022-10-16T10:27:15;100775.25;;;19.11;68.39
4576;BME280;2300;51.874;8.430;2022-10-16T10:29:51;100764.06;;;19.21;67.16
4576;BME280;2300;51.874;8.430;2022-10-16T10:32:32;100765.16;;;19.25;66.51
4576;BME280;2300;51.874;8.430;2022-10-16T10:35:14;100778.91;;;19.50;66.03
4576;BME280;2300;51.874;8.430;2022-10-16T10:38:06;100750.59;;;19.33;67.24
4576;BME280;2300;51.874;8.430;2022-10-16T10:40:51;100757.84;;;19.34;67.76
4576;BME280;2300;51.874;8.430;2022-10-16T10:43:40;100751.28;;;19.20;65.93
4576;BME280;2300;51.874;8.430;2022-10-16T10:46:33;100772.81;;;19.43;67.31
4576;BME280;2300;51.874;8.430;2022-10-16T10:49:14;100744.09;;;19.09;67.18
4576;BME280;2300;51.874;8.430;2022-10-16T10:51:53;100764.94;;;19.55;68.75
4576;BME280;2300;51.874;8.430;2022-10-16T10:54:29;100751.88;;;19.51;67.34
4576;BME280;2300;51.874;8.430;2022-10-16T10:57:02;100779.72;;;19.51;66.52
4576;BME280;2300;51.874;8.430;2022-10-16T11:05:40;100782.13;;;18.69;66.79
4576;BME280;2300;51.874;8.430;2022-10-16T11:08:14;100772.38;;;18.67;67.18
4576;BME280;2300;51.874;8.430;2022-10-16T11:10:48;100748.75;;;18.69;67.91
4576;BME280;2300;51.874;8.430;2022-10-16T11:13:23;100782.50;;;19.12;66.85
4576;BME280;2300;51.874;8.430;2022-10-16T11:15:55;100772.97;;;19.18;66.66
4576;BME280;2300;51.874;8.430;2022-10-16T11:18:27;100773.84;;;19.13;66.15
4576;BME280;2300;51.874;8.430;2022-10-16T11:21:00;100772.03;;;18.89;66.27
4576;BME280;2300;51.874;8.430;2022-10-16T11:23:33;100777.31;;;18.95;66.39
4576;BME280;2300;51.874;8.430;2022-10-16T11:26:04;100779.81;;;18.92;66.34
4576;BME280;2300;51.874;8.430;2022-10-16T11:28:35;100782.34;;;18.78;66.81
4576;BME280;2300;51.874;8.430;2022-10-16T11:31:07;100779.50;;;18.98;67.01
4576;BME280;2300;51.874;8.430;2022-10-16T11:33:39;100786.94;;;19.08;66.48
4576;BME280;2300;51.874;8.430;2022-10-16T11:36:11;100788.09;;;19.07;66.93
4576;BME280;2300;51.874;8.430;2022-10-16T11:38:47;100782.03;;;18.95;66.38
4576;BME280;2300;51.874;8.430;2022-10-16T11:41:22;100762.78;;;19.03;65.75
4576;BME280;2300;51.874;8.430;2022-10-16T11:44:03;100791.25;;;19.34;65.76
4576;BME280;2300;51.874;8.430;2022-10-16T11:46:35;100796.25;;;19.37;64.80
4576;BME280;2300;51.874;8.430;2022-10-16T11:49:08;100792.28;;;19.43;65.12
4576;BME280;2300;51.874;8.430;2022-10-16T11:51:40;100778.34;;;19.53;65.65
4576;BME280;2300;51.874;8.430;2022-10-16T11:54:18;100788.75;;;19.77;65.60
4576;BME280;2300;51.874;8.430;2022-10-16T11:56:51;100777.84;;;19.80;65.07
4576;BME280;2300;51.874;8.430;2022-10-16T11:59:24;100790.84;;;19.95;63.31
4576;BME280;2300;51.874;8.430;2022-10-16T12:02:15;100786.84;;;20.01;63.60
4576;BME280;2300;51.874;8.430;2022-10-16T12:04:46;100802.41;;;19.78;63.29
4576;BME280;2300;51.874;8.430;2022-10-16T12:07:18;100790.03;;;19.50;64.02
4576;BME280;2300;51.874;8.430;2022-10-16T12:09:47;100788.53;;;19.24;64.35
4576;BME280;2300;51.874;8.430;2022-10-16T12:12:24;100789.22;;;19.06;64.62
4576;BME280;2300;51.874;8.430;2022-10-16T12:15:00;100791.22;;;18.90;65.76
4576;BME280;2300;51.874;8.430;2022-10-16T12:17:34;100802.63;;;18.89;65.42
4576;BME280;2300;51.874;8.430;2022-10-16T12:20:18;100782.13;;;18.69;66.37
4576;BME280;2300;51.874;8.430;2022-10-16T12:22:48;100803.03;;;19.21;66.05
4576;BME280;2300;51.874;8.430;2022-10-16T12:25:23;100803.13;;;19.50;66.50
4576;BME280;2300;51.874;8.430;2022-10-16T12:27:55;100807.22;;;19.67;65.44
4576;BME280;2300;51.874;8.430;2022-10-16T12:30:24;100780.63;;;19.80;64.29
4576;BME280;2300;51.874;8.430;2022-10-16T12:32:56;100808.44;;;20.19;66.03
4576;BME280;2300;51.874;8.430;2022-10-16T12:35:25;100801.78;;;20.15;63.85
4576;BME280;2300;51.874;8.430;2022-10-16T12:37:53;100809.78;;;20.22;63.53
4576;BME280;2300;51.874;8.430;2022-10-16T12:40:27;100811.84;;;20.11;63.93
4576;BME280;2300;51.874;8.430;2022-10-16T12:42:55;100802.63;;;19.82;63.92
4576;BME280;2300;51.874;8.430;2022-10-16T12:45:28;100813.09;;;19.56;64.62
4576;BME280;2300;51.874;8.430;2022-10-16T12:47:57;100807.38;;;19.42;66.00
4576;BME280;2300;51.874;8.430;2022-10-16T12:50:29;100811.53;;;19.40;65.52
4576;BME280;2300;51.874;8.430;2022-10-16T12:52:57;100827.41;;;19.39;66.01
4576;BME280;2300;51.874;8.430;2022-10-16T12:55:26;100830.69;;;19.51;65.74
4576;BME280;2300;51.874;8.430;2022-10-16T12:58:03;100828.09;;;19.60;66.42
4576;BME280;2300;51.874;8.430;2022-10-16T13:00:41;100821.78;;;19.49;65.45
4576;BME280;2300;51.874;8.430;2022-10-16T13:03:43;100829.59;;;19.47;65.75
4576;BME280;2300;51.874;8.430;2022-10-16T13:06:22;100831.81;;;19.50;65.80
4576;BME280;2300;51.874;8.430;2022-10-16T13:09:10;100824.44;;;19.69;65.60
4576;BME280;2300;51.874;8.430;2022-10-16T13:11:55;100837.56;;;19.69;64.99
4576;BME280;2300;51.874;8.430;2022-10-16T13:14:36;100845.78;;;19.89;64.84
4576;BME280;2300;51.874;8.430;2022-10-16T13:17:13;100844.06;;;19.93;65.50
4576;BME280;2300;51.874;8.430;2022-10-16T13:19:51;100844.94;;;19.89;63.62
4576;BME280;2300;51.874;8.430;2022-10-16T13:22:23;100849.44;;;19.80;64.43
4576;BME280;2300;51.874;8.430;2022-10-16T13:25:01;100851.88;;;19.47;64.94
4576;BME280;2300;51.874;8.430;2022-10-16T13:27:37;100846.81;;;19.54;65.05
4576;BME280;2300;51.874;8.430;2022-10-16T13:30:12;100834.00;;;19.58;65.62
4576;BME280;2300;51.874;8.430;2022-10-16T13:32:40;100844.06;;;19.49;65.15